Time;durP1;ratioP1;P1;durP2;ratioP2;P2;SDS_P1;SDS_P2;PMS_P1;PMS_P2;Temp;Humidity;BMP_temperature;BMP_pressure;BME280_temperature;BME280_humidity;BME280_pressure;Samples;Min_cycle;Max_cycle;Signal;HPM_P1;HPM_P2
2022/10/05 00:01:00;;;;;;;8.50;5.10;;;15.20;99.90;;;;;;4898370;29;20048;-73
2022/10/05 00:03:35;;;;;;;9.23;4.63;;;15.10;99.90;;;;;;4897455;29;20060;-74
2022/10/05 00:06:01;;;;;;;7.38;4.18;;;15.20;99.90;;;;;;4898350;29;20091;-74
2022/10/05 00:08:31;;;;;;;8.88;4.32;;;15.20;99.90;;;;;;4897209;29;20080;-73
2022/10/05 00:10:57;;;;;;;8.10;5.07;;;15.20;99.90;;;;;;4899872;29;20051;-74
2022/10/05 00:13:29;;;;;;;8.77;4.70;;;15.40;99.90;;;;;;4902688;29;20052;-73
2022/10/05 00:16:10;;;;;;;5.55;4.43;;;15.10;99.90;;;;;;4902200;29;20059;-73
2022/10/05 00:18:37;;;;;;;5.70;4.03;;;15.20;99.90;;;;;;4902168;29;20048;-74
2022/10/05 00:21:19;;;;;;;10.43;4.30;;;15.30;99.90;;;;;;4901494;29;20108;-74
2022/10/05 00:23:45;;;;;;;7.03;4.50;;;15.30;99.90;;;;;;4885456;29;20055;-73
2022/10/05 00:26:24;;;;;;;7.13;4.82;;;15.10;99.90;;;;;;4885409;29;20131;-74
2022/10/05 00:28:51;;;;;;;5.93;4.63;;;15.20;99.90;;;;;;4901899;29;20056;-74
2022/10/05 00:31:23;;;;;;;9.15;4.55;;;15.20;99.90;;;;;;4900649;29;20106;-74
2022/10/05 00:33:49;;;;;;;8.00;4.30;;;15.20;99.90;;;;;;4901841;29;20136;-74
2022/10/05 00:36:15;;;;;;;7.78;4.20;;;15.40;99.90;;;;;;4901795;29;20060;-74
2022/10/05 00:38:42;;;;;;;6.45;4.53;;;15.30;99.90;;;;;;4901753;29;20059;-74
2022/10/05 00:41:34;;;;;;;7.32;4.22;;;15.20;99.90;;;;;;4901762;29;20045;-74
2022/10/05 00:44:18;;;;;;;5.97;4.22;;;15.20;99.90;;;;;;4900348;29;20089;-74
2022/10/05 00:46:46;;;;;;;6.40;5.05;;;15.10;99.90;;;;;;4900993;29;20134;-74
2022/10/05 00:49:48;;;;;;;4.78;3.58;;;15.20;99.90;;;;;;4902117;29;20093;-74
2022/10/05 00:52:51;;;;;;;7.10;4.05;;;15.30;99.90;;;;;;4895764;29;20056;-74
2022/10/05 00:55:17;;;;;;;7.07;4.25;;;15.30;99.90;;;;;;4885114;29;20054;-74
2022/10/05 00:58:04;;;;;;;5.80;3.60;;;15.10;99.90;;;;;;4900371;29;20049;-74
2022/10/05 01:00:33;;;;;;;5.50;3.67;;;15.20;99.90;;;;;;4900702;29;20056;-74
2022/10/05 01:03:26;;;;;;;6.80;4.90;;;15.20;99.90;;;;;;4900607;29;20060;-74
2022/10/05 01:06:15;;;;;;;6.55;3.95;;;15.00;99.90;;;;;;4901345;29;20049;-74
2022/10/05 01:09:16;;;;;;;7.72;3.90;;;15.20;99.90;;;;;;4885198;29;20504;-74
2022/10/05 01:12:10;;;;;;;5.93;3.47;;;15.30;99.90;;;;;;4900217;29;20136;-74
2022/10/05 01:14:44;;;;;;;6.95;4.40;;;15.20;99.90;;;;;;4883618;29;20139;-74
2022/10/05 01:17:17;;;;;;;6.78;4.38;;;15.10;99.90;;;;;;4901389;29;20053;-74
2022/10/05 01:20:09;;;;;;;5.28;3.83;;;15.30;99.90;;;;;;4901119;29;20059;-73
2022/10/05 01:23:04;;;;;;;5.35;3.45;;;15.10;99.90;;;;;;4900500;29;20094;-74
2022/10/05 01:25:39;;;;;;;6.45;4.40;;;15.10;99.90;;;;;;4899988;29;20053;-74
2022/10/05 01:28:31;;;;;;;6.15;3.97;;;15.10;99.90;;;;;;4899944;29;20543;-74
2022/10/05 01:31:05;;;;;;;5.53;3.47;;;15.00;99.90;;;;;;4900802;29;20052;-74
2022/10/05 01:34:01;;;;;;;6.50;4.05;;;15.10;99.90;;;;;;4899856;29;20496;-74
2022/10/05 01:36:47;;;;;;;4.45;3.53;;;15.00;99.90;;;;;;4871483;29;20056;-74
2022/10/05 01:39:24;;;;;;;6.28;3.60;;;15.00;99.90;;;;;;4884158;29;20096;-73
2022/10/05 01:42:11;;;;;;;5.40;3.35;;;15.00;99.90;;;;;;4900681;29;20049;-74
2022/10/05 01:44:53;;;;;;;5.80;2.80;;;15.00;99.90;;;;;;4899734;29;20063;-73
2022/10/05 01:47:30;;;;;;;5.05;2.85;;;15.00;99.90;;;;;;4901107;29;20430;-74
2022/10/05 01:50:10;;;;;;;5.18;3.53;;;15.00;99.90;;;;;;4899785;29;20406;-74
2022/10/05 01:52:42;;;;;;;5.05;2.97;;;15.10;99.90;;;;;;4900567;29;20061;-74
2022/10/05 01:55:21;;;;;;;5.60;3.25;;;14.90;99.90;;;;;;4900276;29;20052;-73
2022/10/05 01:58:11;;;;;;;4.68;3.20;;;15.00;99.90;;;;;;4900420;29;20481;-74
2022/10/05 02:01:08;;;;;;;6.05;3.70;;;15.20;99.90;;;;;;4900913;29;20048;-74
2022/10/05 02:03:50;;;;;;;5.80;3.60;;;15.00;99.90;;;;;;4899604;29;20448;-74
2022/10/05 02:06:23;;;;;;;3.28;2.65;;;15.10;99.90;;;;;;4900518;29;20048;-74
2022/10/05 02:08:58;;;;;;;5.05;3.20;;;14.90;99.90;;;;;;4899503;29;20048;-74
2022/10/05 02:11:24;;;;;;;5.28;3.05;;;15.00;99.90;;;;;;4898823;29;20049;-74
2022/10/05 02:14:07;;;;;;;6.55;4.10;;;14.90;99.90;;;;;;4899191;29;20123;-74
2022/10/05 02:16:43;;;;;;;5.57;3.50;;;15.10;99.90;;;;;;4899404;29;20143;-73
2022/10/05 02:19:29;;;;;;;4.10;3.20;;;15.00;99.90;;;;;;4899841;29;20053;-73
2022/10/05 02:22:04;;;;;;;4.90;4.05;;;15.10;99.90;;;;;;4899279;29;20498;-74
2022/10/05 02:24:45;;;;;;;6.05;4.35;;;15.00;99.90;;;;;;4882779;29;20509;-74
2022/10/05 02:27:19;;;;;;;6.32;4.07;;;15.00;99.90;;;;;;4883876;29;20044;-73
2022/10/05 02:29:47;;;;;;;8.95;4.25;;;14.90;99.90;;;;;;4899710;29;20143;-73
2022/10/05 02:32:26;;;;;;;5.90;4.10;;;14.90;99.90;;;;;;4899741;29;20053;-73
2022/10/05 02:34:51;;;;;;;5.90;3.95;;;14.80;99.90;;;;;;4898957;29;20441;-74
2022/10/05 02:37:36;;;;;;;5.05;3.78;;;15.00;99.90;;;;;;4883126;29;20080;-74
2022/10/05 02:40:29;;;;;;;5.20;3.65;;;14.90;99.90;;;;;;4898607;29;20056;-74
2022/10/05 02:43:13;;;;;;;5.40;3.97;;;14.90;99.90;;;;;;4898889;29;20061;-74
2022/10/05 02:45:51;;;;;;;8.60;4.40;;;14.90;99.90;;;;;;4899500;29;20055;-74
2022/10/05 02:48:25;;;;;;;6.05;4.40;;;14.80;99.90;;;;;;4899448;29;20048;-74
2022/10/05 02:50:51;;;;;;;5.57;3.92;;;14.90;99.90;;;;;;4897904;29;20040;-73
2022/10/05 02:53:17;;;;;;;6.97;4.18;;;14.90;99.90;;;;;;4897936;29;20064;-74
2022/10/05 02:55:59;;;;;;;9.38;4.82;;;14.90;99.90;;;;;;4899133;29;20048;-74
2022/10/05 02:58:29;;;;;;;5.70;4.50;;;15.00;99.90;;;;;;4914196;29;20410;-74
2022/10/05 03:01:18;;;;;;;6.55;4.60;;;14.90;99.90;;;;;;4898268;29;20052;-73
2022/10/05 03:03:51;;;;;;;8.55;4.70;;;15.00;99.90;;;;;;4888752;29;20052;-74
2022/10/05 03:06:30;;;;;;;6.60;4.85;;;14.90;99.90;;;;;;4899928;29;20131;-73
2022/10/05 03:09:02;;;;;;;9.02;4.90;;;15.10;99.90;;;;;;4898632;29;20048;-73
2022/10/05 03:11:49;;;;;;;9.25;4.93;;;14.90;99.90;;;;;;4898958;29;20048;-74
2022/10/05 03:14:17;;;;;;;7.80;4.80;;;14.80;99.90;;;;;;4882839;29;20052;-73
2022/10/05 03:17:04;;;;;;;5.55;4.13;;;14.90;99.90;;;;;;4898767;29;20084;-74
2022/10/05 03:19:45;;;;;;;9.50;4.90;;;14.90;99.90;;;;;;4898235;29;20446;-74
2022/10/05 03:22:27;;;;;;;10.77;5.15;;;14.90;99.90;;;;;;4899490;29;20044;-76
2022/10/05 03:25:04;;;;;;;7.93;4.88;;;14.80;99.90;;;;;;4899430;29;20401;-74
2022/10/05 03:27:47;;;;;;;9.23;5.07;;;14.80;99.90;;;;;;4898564;29;20127;-74
2022/10/05 03:30:18;;;;;;;8.50;5.40;;;14.90;99.90;;;;;;4898791;29;20128;-74
2022/10/05 03:33:09;;;;;;;7.75;5.43;;;15.10;99.90;;;;;;4898657;29;20140;-75
2022/10/05 03:35:47;;;;;;;7.70;4.60;;;14.70;99.90;;;;;;4871666;29;20060;-74
2022/10/05 03:38:21;;;;;;;7.15;4.13;;;14.90;99.90;;;;;;4897803;29;20098;-74
2022/10/05 03:41:12;;;;;;;8.05;4.40;;;15.00;99.90;;;;;;4898519;29;20052;-74
2022/10/05 03:43:58;;;;;;;7.93;4.32;;;15.10;99.90;;;;;;4898984;29;20096;-73
2022/10/05 03:46:53;;;;;;;9.25;4.95;;;14.80;99.90;;;;;;4897759;29;20056;-73
2022/10/05 03:49:37;;;;;;;6.95;4.85;;;14.80;99.90;;;;;;4889544;29;20060;-74
2022/10/05 03:52:17;;;;;;;5.72;4.13;;;15.00;99.90;;;;;;4897334;29;20065;-74
2022/10/05 03:54:51;;;;;;;6.07;3.83;;;14.70;99.90;;;;;;4898208;29;20071;-74
2022/10/05 03:57:23;;;;;;;9.52;4.68;;;15.10;99.90;;;;;;4898319;29;20052;-74
2022/10/05 04:00:13;;;;;;;7.93;4.28;;;15.10;99.90;;;;;;4898327;29;20135;-74
2022/10/05 04:02:51;;;;;;;6.50;4.20;;;14.80;99.90;;;;;;4897633;29;20049;-73
2022/10/05 04:05:21;;;;;;;5.57;4.10;;;14.90;99.90;;;;;;4898279;29;20048;-73
2022/10/05 04:07:58;;;;;;;4.95;3.70;;;14.80;99.90;;;;;;4897561;29;20139;-74
2022/10/05 04:10:34;;;;;;;6.03;4.22;;;14.80;99.90;;;;;;4897383;29;20049;-73
2022/10/05 04:13:16;;;;;;;6.70;4.05;;;14.90;99.90;;;;;;4882434;29;20063;-74
2022/10/05 04:16:06;;;;;;;7.95;4.05;;;14.70;99.90;;;;;;4896988;29;20067;-74
2022/10/05 04:19:00;;;;;;;7.22;4.22;;;14.90;99.90;;;;;;4898131;29;20139;-74
2022/10/05 04:21:54;;;;;;;7.15;4.10;;;14.90;99.90;;;;;;4898172;29;20045;-73
2022/10/05 04:24:33;;;;;;;5.88;3.88;;;14.80;99.90;;;;;;4897111;29;20049;-74
2022/10/05 04:27:26;;;;;;;5.75;4.15;;;14.80;99.90;;;;;;4897076;29;20584;-74
2022/10/05 04:30:16;;;;;;;5.88;3.75;;;14.90;99.90;;;;;;4898865;29;20132;-74
2022/10/05 04:32:46;;;;;;;7.53;4.20;;;14.80;99.90;;;;;;4896896;29;20096;-74
2022/10/05 04:35:33;;;;;;;6.47;4.00;;;14.90;99.90;;;;;;4898107;29;20052;-74
2022/10/05 04:38:29;;;;;;;6.35;4.20;;;14.80;99.90;;;;;;4898025;29;20057;-74
2022/10/05 04:41:30;;;;;;;6.68;3.92;;;14.80;99.90;;;;;;4897892;29;20146;-74
2022/10/05 04:44:37;;;;;;;6.40;4.20;;;14.80;99.90;;;;;;4897008;29;20060;-74
2022/10/05 04:47:21;;;;;;;6.90;4.07;;;14.90;99.90;;;;;;4897712;29;20112;-73
2022/10/05 04:50:02;;;;;;;6.93;4.63;;;14.90;99.90;;;;;;4897822;29;20056;-74
2022/10/05 04:52:52;;;;;;;6.80;4.40;;;15.00;99.90;;;;;;4898125;29;20068;-74
2022/10/05 04:55:31;;;;;;;7.20;4.40;;;14.80;99.90;;;;;;4897881;29;20096;-74
2022/10/05 04:58:12;;;;;;;7.40;4.30;;;14.60;99.90;;;;;;4900697;29;20056;-74
2022/10/05 05:01:09;;;;;;;5.43;3.95;;;14.80;99.90;;;;;;4900250;29;20497;-74
2022/10/05 05:03:44;;;;;;;8.13;4.80;;;14.80;99.90;;;;;;4892362;29;20064;-74
2022/10/05 05:06:13;;;;;;;6.13;4.38;;;14.70;99.90;;;;;;4901995;29;20071;-74
2022/10/05 05:09:06;;;;;;;5.55;3.95;;;14.80;99.90;;;;;;4900042;29;20463;-74
2022/10/05 05:12:11;;;;;;;6.35;4.80;;;14.80;99.90;;;;;;4899821;29;20075;-74
2022/10/05 05:14:47;;;;;;;6.47;4.55;;;14.80;99.90;;;;;;4900766;29;20131;-74
2022/10/05 05:17:51;;;;;;;7.05;4.57;;;14.80;99.90;;;;;;4900923;29;20049;-74
2022/10/05 05:20:25;;;;;;;;;;;14.70;99.90;;;;;;4824850;29;20050;-73
2022/10/05 05:23:15;;;;;;;6.72;4.50;;;14.70;99.90;;;;;;4890979;29;20018;-74
2022/10/05 05:26:11;;;;;;;9.52;5.28;;;14.90;99.90;;;;;;4899655;29;20482;-74
2022/10/05 05:29:04;;;;;;;7.53;5.43;;;14.80;99.90;;;;;;4899719;29;20053;-74
2022/10/05 05:31:30;;;;;;;7.95;5.30;;;14.70;99.90;;;;;;4900697;29;20049;-74
2022/10/05 05:34:14;;;;;;;7.75;5.65;;;14.60;99.90;;;;;;4899687;29;20052;-74
2022/10/05 05:36:42;;;;;;;8.68;5.68;;;14.70;99.90;;;;;;4900678;29;20121;-74
2022/10/05 05:39:41;;;;;;;10.55;6.00;;;14.70;99.90;;;;;;4900454;29;20056;-74
2022/10/05 05:42:28;;;;;;;7.22;5.18;;;14.80;99.90;;;;;;4899700;29;20135;-74
2022/10/05 05:44:58;;;;;;;8.18;5.15;;;14.50;99.90;;;;;;4899793;29;20057;-74
2022/10/05 05:47:38;;;;;;;7.45;5.28;;;14.60;99.90;;;;;;4900302;29;20390;-74
2022/10/05 05:50:47;;;;;;;9.25;5.75;;;14.60;99.90;;;;;;4884799;29;20048;-74
2022/10/05 05:53:22;;;;;;;8.90;6.00;;;14.60;99.90;;;;;;4900621;29;20056;-74
2022/10/05 05:55:55;;;;;;;7.80;5.68;;;14.50;99.90;;;;;;4899871;29;20466;-74
2022/10/05 05:59:03;;;;;;;6.70;5.20;;;14.60;99.90;;;;;;4900257;29;20055;-73
2022/10/05 06:01:31;;;;;;;8.35;5.03;;;14.60;99.90;;;;;;4879741;29;20061;-74
2022/10/05 06:04:18;;;;;;;7.53;5.25;;;14.40;99.90;;;;;;4899263;29;20123;-74
2022/10/05 06:06:50;;;;;;;8.00;5.32;;;14.60;99.90;;;;;;4900629;29;20053;-74
2022/10/05 06:09:22;;;;;;;10.07;5.38;;;14.70;99.90;;;;;;4898852;29;20472;-74
2022/10/05 06:11:53;;;;;;;8.18;5.90;;;14.60;99.90;;;;;;4899546;29;20568;-74
2022/10/05 06:14:24;;;;;;;8.25;5.18;;;14.60;99.90;;;;;;4899845;29;20060;-74
2022/10/05 06:17:05;;;;;;;8.35;5.57;;;14.70;99.90;;;;;;4899161;29;20052;-74
2022/10/05 06:19:33;;;;;;;8.10;5.68;;;14.70;99.90;;;;;;4898869;29;20057;-74
2022/10/05 06:22:06;;;;;;;8.93;5.70;;;14.70;99.90;;;;;;4899617;29;20079;-74
2022/10/05 06:24:51;;;;;;;;;;;14.60;99.90;;;;;;4900721;29;20048;-73
2022/10/05 06:27:23;;;;;;;9.18;6.30;;;14.50;99.90;;;;;;4883416;29;19924;-74
2022/10/05 06:30:02;;;;;;;10.50;6.15;;;14.60;99.90;;;;;;4899350;29;20064;-74
2022/10/05 06:32:51;;;;;;;9.48;6.18;;;14.60;99.90;;;;;;4898958;29;20056;-74
2022/10/05 06:35:29;;;;;;;8.73;5.63;;;14.60;99.90;;;;;;4900344;29;20127;-74
2022/10/05 06:38:17;;;;;;;8.65;6.05;;;14.80;99.90;;;;;;4899483;29;20049;-73
2022/10/05 06:40:49;;;;;;;10.45;6.20;;;14.60;99.90;;;;;;4898286;29;20056;-74
2022/10/05 06:43:36;;;;;;;8.50;5.53;;;14.60;99.90;;;;;;4899199;29;20143;-74
2022/10/05 06:46:28;;;;;;;10.30;5.90;;;14.60;99.90;;;;;;4898725;29;20053;-74
2022/10/05 06:49:15;;;;;;;9.27;5.50;;;14.60;99.90;;;;;;4899168;29;20083;-74
2022/10/05 06:52:10;;;;;;;10.07;5.93;;;14.60;99.90;;;;;;4899515;29;20410;-74
2022/10/05 06:55:08;;;;;;;9.43;6.13;;;14.50;99.90;;;;;;4870094;29;20052;-74
2022/10/05 06:58:05;;;;;;;8.02;5.65;;;14.70;99.90;;;;;;4882619;29;20101;-73
2022/10/05 07:00:57;;;;;;;9.20;6.20;;;14.70;99.90;;;;;;4899377;29;20419;-73
2022/10/05 07:03:34;;;;;;;8.27;6.03;;;14.90;99.90;;;;;;4898888;29;20083;-73
2022/10/05 07:06:26;;;;;;;7.05;5.82;;;14.60;99.90;;;;;;4898312;29;20091;-74
2022/10/05 07:09:01;;;;;;;9.40;6.35;;;14.70;99.90;;;;;;4899245;29;20087;-74
2022/10/05 07:12:03;;;;;;;8.35;5.47;;;14.70;99.90;;;;;;4883268;29;20100;-74
2022/10/05 07:14:49;;;;;;;7.93;5.97;;;14.70;99.90;;;;;;4898359;29;20506;-74
2022/10/05 07:17:35;;;;;;;8.25;5.40;;;14.70;99.90;;;;;;4898613;29;20098;-74
2022/10/05 07:20:07;;;;;;;9.05;5.97;;;14.80;99.90;;;;;;4897830;29;20087;-74
2022/10/05 07:22:57;;;;;;;7.15;5.40;;;14.60;99.90;;;;;;4898739;29;20063;-75
2022/10/05 07:25:41;;;;;;;7.10;5.70;;;14.70;99.90;;;;;;4899163;29;20059;-74
2022/10/05 07:28:33;;;;;;;7.97;6.15;;;14.70;99.90;;;;;;4897741;29;20136;-74
2022/10/05 07:31:23;;;;;;;7.90;5.45;;;14.70;99.90;;;;;;4893285;29;20064;-74
2022/10/05 07:34:05;;;;;;;8.55;5.75;;;14.70;99.90;;;;;;4898661;29;20184;-74
2022/10/05 07:40:18;;;;;;;7.88;5.65;;;14.70;99.90;;;;;;4885052;29;20064;-74
2022/10/05 07:42:55;;;;;;;7.30;5.90;;;14.70;99.90;;;;;;4899220;29;20053;-74
2022/10/05 07:45:45;;;;;;;7.65;5.57;;;14.60;99.90;;;;;;4897809;29;20052;-74
2022/10/05 07:48:22;;;;;;;10.43;6.00;;;14.90;99.90;;;;;;4898410;29;20048;-74
2022/10/05 07:50:57;;;;;;;8.85;5.80;;;14.80;99.90;;;;;;4898296;29;20040;-74
2022/10/05 07:53:51;;;;;;;7.47;5.88;;;14.80;99.90;;;;;;4898657;29;20071;-74
2022/10/05 07:56:25;;;;;;;7.40;5.75;;;14.90;99.90;;;;;;4882828;29;20060;-74
2022/10/05 07:59:01;;;;;;;8.73;5.60;;;14.80;99.90;;;;;;4899268;29;20044;-75
2022/10/05 08:01:33;;;;;;;8.13;6.03;;;14.70;99.90;;;;;;4898993;29;20378;-74
2022/10/05 08:04:13;;;;;;;10.43;5.90;;;14.80;99.90;;;;;;4898463;29;20477;-75
2022/10/05 08:07:04;;;;;;;8.95;5.82;;;14.90;99.90;;;;;;4898124;29;20041;-75
2022/10/05 08:09:54;;;;;;;7.85;5.68;;;15.00;99.90;;;;;;4897155;29;20049;-74
2022/10/05 08:12:42;;;;;;;7.03;5.88;;;14.90;99.90;;;;;;4897171;29;20057;-75
2022/10/05 08:15:14;;;;;;;9.10;5.50;;;14.90;99.90;;;;;;4898604;29;20461;-75
2022/10/05 08:17:55;;;;;;;6.50;5.40;;;14.90;99.90;;;;;;4882042;29;20095;-75
2022/10/05 08:20:49;;;;;;;8.65;5.72;;;15.10;99.90;;;;;;4897573;29;20060;-75
2022/10/05 08:23:37;;;;;;;5.95;5.22;;;15.00;99.90;;;;;;4897924;29;20048;-74
2022/10/05 08:26:24;;;;;;;7.13;5.10;;;14.90;99.90;;;;;;4897517;29;20088;-74
2022/10/05 08:29:26;;;;;;;7.07;5.45;;;14.80;99.90;;;;;;4897183;29;20052;-75
2022/10/05 08:31:57;;;;;;;6.45;4.80;;;15.00;99.90;;;;;;4898276;29;20048;-75
2022/10/05 08:34:33;;;;;;;7.10;5.30;;;15.00;99.90;;;;;;4901301;29;20057;-75
2022/10/05 08:37:26;;;;;;;7.65;4.88;;;15.10;99.90;;;;;;4901751;29;20485;-74
2022/10/05 08:40:17;;;;;;;6.78;5.10;;;15.10;99.90;;;;;;4901572;29;20104;-74
2022/10/05 08:43:11;;;;;;;7.38;5.38;;;15.10;99.90;;;;;;4901001;29;20059;-74
2022/10/05 08:45:48;;;;;;;5.88;4.88;;;15.30;99.90;;;;;;4901907;29;20132;-75
2022/10/05 08:48:24;;;;;;;7.35;5.40;;;15.20;99.90;;;;;;4900613;29;20477;-76
2022/10/05 08:51:19;;;;;;;6.18;4.95;;;15.40;99.90;;;;;;4900493;29;20127;-73
2022/10/05 08:54:08;;;;;;;6.80;4.32;;;15.10;99.90;;;;;;4902199;29;20045;-75
2022/10/05 08:56:33;;;;;;;6.03;4.40;;;15.20;99.90;;;;;;4916630;29;20053;-74
2022/10/05 08:59:44;;;;;;;5.32;4.45;;;15.40;99.90;;;;;;4901165;29;20052;-75
2022/10/05 09:02:37;;;;;;;7.95;4.40;;;15.50;99.90;;;;;;4871819;29;20079;-75
2022/10/05 09:05:21;;;;;;;;;;;15.50;99.90;;;;;;4901701;29;20181;-74
2022/10/05 09:07:50;;;;;;;6.13;4.30;;;15.40;99.90;;;;;;4901271;29;19924;-74
2022/10/05 09:10:56;;;;;;;5.82;4.63;;;15.50;99.90;;;;;;4900338;29;20393;-74
2022/10/05 09:13:24;;;;;;;5.53;4.40;;;15.70;99.90;;;;;;4900194;29;20055;-74
2022/10/05 09:15:59;;;;;;;7.30;4.30;;;15.60;99.90;;;;;;4901179;29;20493;-75
2022/10/05 09:18:33;;;;;;;5.35;4.10;;;15.60;99.90;;;;;;4900973;29;20088;-74
2022/10/05 09:21:37;;;;;;;4.75;3.58;;;15.80;99.90;;;;;;4901215;29;20054;-73
2022/10/05 09:24:11;;;;;;;5.25;4.13;;;15.80;99.90;;;;;;4899611;29;20049;-74
2022/10/05 09:26:58;;;;;;;4.50;3.85;;;15.80;99.90;;;;;;4900889;29;20105;-75
2022/10/05 09:30:01;;;;;;;5.45;3.90;;;15.90;99.90;;;;;;4900139;29;20061;-75
2022/10/05 09:32:33;;;;;;;5.30;4.30;;;15.90;99.90;;;;;;4901421;29;20053;-75
2022/10/05 09:35:38;;;;;;;5.53;3.63;;;15.90;99.90;;;;;;4900987;29;20053;-74
2022/10/05 09:38:23;;;;;;;4.68;3.75;;;16.00;99.90;;;;;;4900945;29;20052;-75
2022/10/05 09:41:07;;;;;;;5.00;3.78;;;15.90;99.90;;;;;;4899640;29;20378;-74
2022/10/05 09:43:33;;;;;;;5.15;3.58;;;15.90;99.90;;;;;;4900979;29;20040;-75
2022/10/05 09:46:27;;;;;;;5.20;3.60;;;16.00;99.90;;;;;;4900779;29;20137;-75
2022/10/05 09:49:27;;;;;;;3.95;3.42;;;16.00;99.90;;;;;;4900507;29;20057;-75
2022/10/05 09:52:07;;;;;;;4.72;3.03;;;15.90;99.90;;;;;;4900356;29;20060;-75
2022/10/05 09:55:01;;;;;;;4.85;3.15;;;16.00;99.90;;;;;;4899315;29;20434;-75
2022/10/05 09:57:51;;;;;;;4.72;3.35;;;16.10;99.90;;;;;;4899094;29;20132;-78
2022/10/05 10:00:30;;;;;;;4.53;2.95;;;16.00;99.90;;;;;;4900346;29;20059;-75
2022/10/05 10:03:43;;;;;;;5.22;2.70;;;16.10;99.90;;;;;;4900370;29;20476;-76
2022/10/05 10:06:38;;;;;;;2.15;1.95;;;16.20;99.90;;;;;;4898441;29;20048;-75
2022/10/05 10:09:16;;;;;;;3.38;2.33;;;16.40;99.90;;;;;;4900390;29;20452;-76
2022/10/05 10:12:16;;;;;;;3.60;3.10;;;16.20;99.90;;;;;;4900043;29;20084;-75
2022/10/05 10:15:01;;;;;;;3.92;2.70;;;16.20;99.90;;;;;;4900050;29;20048;-76
2022/10/05 10:17:36;;;;;;;5.95;2.70;;;16.10;99.90;;;;;;4898574;29;20085;-75
2022/10/05 10:20:19;;;;;;;4.88;2.50;;;16.40;99.90;;;;;;4899061;29;20541;-76
2022/10/05 10:23:02;;;;;;;2.70;2.50;;;16.40;99.90;;;;;;4900048;29;20052;-73
2022/10/05 10:25:40;;;;;;;2.42;2.17;;;16.30;99.90;;;;;;4899549;29;20518;-75
2022/10/05 10:28:12;;;;;;;3.17;2.75;;;16.40;99.90;;;;;;4899655;29;20104;-74
2022/10/05 10:31:08;;;;;;;4.00;2.10;;;16.20;99.90;;;;;;4899732;29;20135;-76
2022/10/05 10:33:52;;;;;;;3.65;2.40;;;16.40;99.90;;;;;;4900143;29;20390;-75
2022/10/05 10:36:36;;;;;;;2.38;2.20;;;16.10;99.90;;;;;;4898594;29;20541;-75
2022/10/05 10:39:19;;;;;;;3.53;2.83;;;16.20;99.90;;;;;;4899907;29;20076;-76
2022/10/05 10:42:03;;;;;;;2.35;2.05;;;16.30;99.90;;;;;;4898983;29;20438;-75
2022/10/05 10:44:54;;;;;;;6.35;2.72;;;16.30;99.90;;;;;;4899515;29;20053;-75
2022/10/05 10:47:49;;;;;;;3.28;2.97;;;16.30;99.90;;;;;;4898867;29;20053;-75
2022/10/05 10:50:36;;;;;;;3.30;3.00;;;16.50;99.90;;;;;;4898729;29;20045;-75
2022/10/05 10:53:22;;;;;;;4.97;3.17;;;16.40;99.90;;;;;;4898275;29;20056;-75
2022/10/05 10:56:20;;;;;;;4.03;3.22;;;16.20;99.90;;;;;;4898954;29;20116;-75
2022/10/05 10:58:59;;;;;;;3.90;3.47;;;16.20;99.90;;;;;;4898388;29;20104;-75
2022/10/05 11:01:45;;;;;;;3.75;3.28;;;16.30;99.90;;;;;;4899418;29;20041;-80
2022/10/05 11:04:23;;;;;;;6.28;3.70;;;16.30;99.90;;;;;;4899304;29;20130;-76
2022/10/05 11:07:17;;;;;;;5.30;3.60;;;16.50;99.90;;;;;;4899169;29;20060;-75
2022/10/05 11:09:43;;;;;;;5.15;3.35;;;16.30;99.90;;;;;;4892439;29;20140;-76
2022/10/05 11:12:30;;;;;;;4.40;4.00;;;16.30;99.90;;;;;;4899314;29;20184;-75
2022/10/05 11:15:17;;;;;;;4.10;3.60;;;16.30;99.90;;;;;;4898759;29;20112;-75
2022/10/05 11:18:14;;;;;;;3.47;3.05;;;16.30;99.90;;;;;;4899580;29;20124;-76
2022/10/05 11:20:58;;;;;;;3.58;3.20;;;16.30;99.90;;;;;;4898710;29;20052;-76
2022/10/05 11:23:47;;;;;;;5.03;3.47;;;16.20;99.90;;;;;;4899497;29;20134;-76
2022/10/05 11:26:40;;;;;;;3.47;3.17;;;16.40;99.90;;;;;;4883197;29;20140;-76
2022/10/05 11:29:40;;;;;;;4.05;3.47;;;16.40;99.90;;;;;;4898283;29;20051;-75
2022/10/05 11:32:25;;;;;;;4.35;3.85;;;16.40;99.90;;;;;;4898438;29;20113;-77
2022/10/05 11:34:57;;;;;;;3.53;3.22;;;16.30;99.90;;;;;;4898956;29;20052;-79
2022/10/05 11:37:38;;;;;;;5.32;3.45;;;16.40;99.90;;;;;;4898839;29;20048;-79
2022/10/05 11:40:25;;;;;;;4.30;3.33;;;16.30;99.90;;;;;;4899568;29;20112;-76
2022/10/05 11:43:19;;;;;;;3.33;3.03;;;16.30;99.90;;;;;;4897704;29;20397;-76
2022/10/05 11:46:00;;;;;;;6.13;3.40;;;16.40;99.90;;;;;;4897761;29;20049;-75
2022/10/05 11:48:43;;;;;;;4.57;3.75;;;16.40;99.90;;;;;;4899294;29;20124;-76
2022/10/05 11:51:21;;;;;;;3.88;3.20;;;16.40;99.90;;;;;;4898170;29;20052;-75
2022/10/05 11:54:05;;;;;;;3.22;2.92;;;16.40;99.90;;;;;;4863522;29;20486;-75
2022/10/05 11:56:42;;;;;;;3.05;2.70;;;16.50;99.90;;;;;;4880305;29;20053;-76
2022/10/05 11:59:33;;;;;;;3.85;3.05;;;16.40;99.90;;;;;;4880256;29;20053;-75
2022/10/05 12:02:36;;;;;;;3.35;3.13;;;16.50;99.90;;;;;;4880202;29;20133;-76
2022/10/05 12:05:35;;;;;;;3.73;3.10;;;16.60;99.90;;;;;;4880651;29;20140;-76
2022/10/05 12:08:43;;;;;;;3.75;3.13;;;16.40;99.90;;;;;;4883188;29;20747;-75
2022/10/05 12:11:48;;;;;;;3.65;3.30;;;16.40;99.90;;;;;;4884418;29;20423;-76
2022/10/05 12:14:29;;;;;;;3.83;3.45;;;16.40;99.90;;;;;;4870292;29;20056;-75
2022/10/05 12:17:09;;;;;;;6.53;3.85;;;16.40;99.90;;;;;;4883643;29;20064;-75
2022/10/05 12:19:42;;;;;;;4.53;3.95;;;16.40;99.90;;;;;;4882451;29;20048;-73
2022/10/05 12:22:14;;;;;;;3.45;3.00;;;16.50;99.90;;;;;;4867330;29;20060;-76
2022/10/05 12:25:00;;;;;;;2.85;2.65;;;16.40;99.90;;;;;;4866741;29;20478;-76
2022/10/05 12:27:32;;;;;;;3.67;2.83;;;16.30;99.90;;;;;;4867320;29;20053;-76
2022/10/05 12:30:25;;;;;;;4.28;2.60;;;16.40;99.90;;;;;;4852021;29;20501;-75
2022/10/05 12:33:11;;;;;;;2.93;2.43;;;16.30;99.90;;;;;;4867431;29;20516;-75
2022/10/05 12:35:47;;;;;;;3.15;2.85;;;16.50;99.90;;;;;;4883619;29;20075;-76
2022/10/05 12:38:40;;;;;;;3.53;2.58;;;16.40;99.90;;;;;;4867304;29;20542;-75
2022/10/05 12:41:24;;;;;;;2.55;2.17;;;16.30;99.90;;;;;;4867598;29;20057;-75
2022/10/05 12:44:01;;;;;;;4.88;2.42;;;16.40;99.90;;;;;;4883051;29;20064;-75
2022/10/05 12:46:36;;;;;;;3.88;2.17;;;16.40;99.90;;;;;;4866588;29;20056;-75
2022/10/05 12:49:15;;;;;;;3.47;1.92;;;15.30;99.90;;;;;;4883325;29;20053;-75
2022/10/05 12:51:42;;;;;;;2.80;2.42;;;16.30;99.90;;;;;;4886427;29;20071;-75
2022/10/05 12:54:12;;;;;;;2.80;2.03;;;16.50;99.90;;;;;;4901678;29;20171;-75
2022/10/05 12:56:38;;;;;;;2.75;2.17;;;16.30;99.90;;;;;;4900774;29;20052;-75
2022/10/05 12:59:29;;;;;;;3.78;2.00;;;16.30;99.90;;;;;;4901619;29;20402;-75
2022/10/05 13:02:27;;;;;;;3.35;2.10;;;16.50;99.90;;;;;;4900928;29;20048;-75
2022/10/05 13:05:10;;;;;;;4.43;2.38;;;16.30;99.90;;;;;;4875384;29;20120;-75
2022/10/05 13:08:00;;;;;;;2.38;2.00;;;16.30;99.90;;;;;;4901212;29;20051;-75
2022/10/05 13:10:47;;;;;;;2.60;2.40;;;16.60;99.90;;;;;;4901344;29;20049;-75
2022/10/05 13:13:32;;;;;;;4.95;2.85;;;16.50;99.90;;;;;;4900670;29;20112;-75
2022/10/05 13:16:10;;;;;;;4.18;2.95;;;16.50;99.90;;;;;;4901950;29;20068;-75
2022/10/05 13:18:54;;;;;;;4.15;2.42;;;16.40;99.90;;;;;;4901322;29;20057;-76
2022/10/05 13:21:55;;;;;;;3.28;2.75;;;16.50;99.90;;;;;;4900587;29;20059;-75
2022/10/05 13:24:37;;;;;;;4.43;3.25;;;16.40;99.90;;;;;;4890787;29;20096;-75
2022/10/05 13:27:26;;;;;;;3.67;2.75;;;16.40;99.90;;;;;;4901185;29;20048;-75
2022/10/05 13:30:14;;;;;;;3.88;2.58;;;16.50;99.90;;;;;;4901117;29;20048;-75
2022/10/05 13:32:46;;;;;;;3.83;2.80;;;16.50;99.90;;;;;;4901081;29;20115;-75
2022/10/05 13:35:45;;;;;;;4.32;2.50;;;16.60;99.90;;;;;;4900867;29;20066;-75
2022/10/05 13:38:24;;;;;;;3.25;2.60;;;16.40;99.90;;;;;;4899978;29;20545;-75
2022/10/05 13:41:13;;;;;;;3.30;2.65;;;16.50;99.90;;;;;;4901409;29;20048;-75
2022/10/05 13:44:03;;;;;;;2.88;2.47;;;16.70;99.90;;;;;;4900841;29;20485;-75
2022/10/05 13:47:33;;;;;;;5.82;2.60;;;16.40;99.90;;;;;;4899916;29;20063;-74
2022/10/05 13:50:29;;;;;;;3.13;2.70;;;16.70;99.90;;;;;;4812640;29;20058;-75
2022/10/05 13:53:11;;;;;;;3.55;2.78;;;16.50;99.90;;;;;;4900480;29;20060;-75
2022/10/05 13:56:07;;;;;;;3.03;2.72;;;16.50;99.90;;;;;;4900043;29;20110;-75
2022/10/05 13:58:50;;;;;;;3.08;2.88;;;16.90;99.90;;;;;;4899935;29;20052;-75
2022/10/05 14:01:28;;;;;;;3.80;2.75;;;16.60;99.90;;;;;;4900857;29;20124;-74
2022/10/05 14:04:16;;;;;;;3.80;2.72;;;16.80;99.90;;;;;;4899535;29;20064;-76
2022/10/05 14:06:43;;;;;;;5.25;2.97;;;16.90;99.90;;;;;;4899475;29;20405;-75
2022/10/05 14:09:25;;;;;;;3.30;2.60;;;16.80;99.90;;;;;;4900898;29;20051;-74
2022/10/05 14:12:12;;;;;;;5.43;2.53;;;16.80;99.90;;;;;;4899455;29;20052;-75
2022/10/05 14:14:57;;;;;;;3.67;2.40;;;17.00;99.90;;;;;;4899652;29;20095;-74